»·PEaware :: FFT250 KSLC-KSNA

FFT250 :: KSLC-KSNA

FLIGHT INFORMATION

Flight Status: Arrived
Operator:
Frontier Airlines
More flights by this operator :: More flights under this callsign
Pilot: Andrew J. (13363)
Aircraft: AIRBUS A320
(A320)
More flights by this aircraft type
Origin: KSLC Salt Lake City Intl
United States
Destination: KSNA John Wayne-Orange Co
United States
More flights between these airports :: More routes between these airports
Route: ARCHZ1 WINEN BLD NATEE ROOBY3
File this flight plan on PilotEdge
Remarks:
Altitude:
(Current/Filed)
34,000ft
Speed:
(Current/Filed)
430kts
Departed: 12-Nov-18 05:35 PM
Arrived: 12-Nov-18 06:52 PM
Distance/Time
Traveled:
511nm/1:17
Distance/Time
To Go:
Arrived

Flight Plot

Page will automatically refresh every two minutes.

Flight plan parsing failed; only flown route is shown


Map Options




Map Legend


Flown Route
Filed Route
Departure Airport
Arrival Airport
Navaid (VOR, NDB)
Fix

Horizontal Profiles

Position Reports

Time Latitude Longitude Heading Altitude Ground
Speed
12-Nov-18 17:18 40.785621 -111.978658 240 4236ft 0kts
12-Nov-18 17:19 40.785621 -111.978658 240 4236ft 0kts
12-Nov-18 17:20 40.785621 -111.978658 240 4236ft 0kts
12-Nov-18 17:21 40.785621 -111.978658 240 4236ft 0kts
12-Nov-18 17:22 40.785621 -111.978658 240 4236ft 0kts
12-Nov-18 17:23 40.785621 -111.978658 240 4236ft 0kts
12-Nov-18 17:24 40.785621 -111.978658 240 4236ft 0kts
12-Nov-18 17:25 40.785621 -111.978658 240 4236ft 0kts
12-Nov-18 17:26 40.785621 -111.978658 240 4236ft 0kts
12-Nov-18 17:27 40.785621 -111.978658 240 4236ft 0kts
12-Nov-18 17:28 40.785825 -111.978400 204 4236ft 2kts
12-Nov-18 17:29 40.785962 -111.978090 58 4236ft 1kts
12-Nov-18 17:30 40.786205 -111.977521 84 4236ft 0kts
12-Nov-18 17:31 40.786205 -111.977521 84 4236ft 0kts
12-Nov-18 17:32 40.786205 -111.977521 84 4236ft 0kts
12-Nov-18 17:33 40.786152 -111.976712 137 4236ft 8kts
12-Nov-18 17:34 40.783335 -111.976310 175 4236ft 17kts
12-Nov-18 17:35 40.778658 -111.975319 158 4236ft 16kts
12-Nov-18 17:36 40.774672 -111.974764 158 4236ft 2kts
12-Nov-18 17:37 40.774605 -111.974670 115 4236ft 2kts
12-Nov-18 17:38 40.778556 -111.973615 354 4236ft 77kts
12-Nov-18 17:39 40.819168 -111.982966 315 5852ft 169kts
12-Nov-18 17:40 40.824915 -112.054795 272 7606ft 241kts
12-Nov-18 17:41 40.822676 -112.148262 254 10366ft 269kts
12-Nov-18 17:42 40.777246 -112.232984 235 12600ft 312kts
12-Nov-18 17:43 40.694443 -112.286074 188 13918ft 373kts
12-Nov-18 17:44 40.589217 -112.306842 189 15974ft 392kts
12-Nov-18 17:45 40.482452 -112.345435 198 17844ft 408kts
12-Nov-18 17:46 40.372293 -112.390385 198 19558ft 424kts
12-Nov-18 17:47 40.258134 -112.436852 199 21128ft 439kts
12-Nov-18 17:48 40.141442 -112.488430 210 22571ft 450kts
12-Nov-18 17:49 40.032239 -112.571751 213 23928ft 462kts
12-Nov-18 17:50 39.918706 -112.652879 211 25185ft 475kts
12-Nov-18 17:51 39.801672 -112.734688 211 26281ft 486kts
12-Nov-18 17:52 39.680860 -112.817218 204 27300ft 499kts
12-Nov-18 17:53 39.547561 -112.872103 198 28265ft 510kts
12-Nov-18 17:54 39.411262 -112.926280 198 29179ft 519kts
12-Nov-18 17:55 39.272113 -112.981372 198 30046ft 527kts
12-Nov-18 17:56 39.131360 -113.036863 198 30855ft 535kts
12-Nov-18 17:57 38.989037 -113.092732 198 31734ft 540kts
12-Nov-18 17:58 38.845159 -113.148974 198 32538ft 544kts
12-Nov-18 17:59 38.701430 -113.204919 198 33353ft 544kts
12-Nov-18 18:00 38.556497 -113.261106 198 34126ft 545kts
12-Nov-18 18:01 38.412177 -113.316808 198 34542ft 543kts
12-Nov-18 18:02 38.268134 -113.372184 198 34545ft 544kts
12-Nov-18 18:03 38.123823 -113.427433 198 34512ft 544kts
12-Nov-18 18:04 37.979134 -113.482592 198 34502ft 544kts
12-Nov-18 18:05 37.845414 -113.563600 214 34513ft 537kts
12-Nov-18 18:06 37.718141 -113.655549 213 34497ft 549kts
12-Nov-18 18:07 37.585974 -113.750493 213 34497ft 554kts
12-Nov-18 18:08 37.452274 -113.846152 213 34497ft 553kts
12-Nov-18 18:09 37.318783 -113.941284 213 34496ft 553kts
12-Nov-18 18:10 37.186668 -114.035052 213 34505ft 553kts
12-Nov-18 18:11 37.053091 -114.129469 213 34497ft 551kts
12-Nov-18 18:12 36.920299 -114.222936 213 34480ft 545kts
12-Nov-18 18:13 36.789990 -114.314335 213 34479ft 546kts
12-Nov-18 18:14 36.657857 -114.406620 213 34478ft 546kts
12-Nov-18 18:15 36.525786 -114.498495 213 34478ft 546kts
12-Nov-18 18:16 36.393573 -114.590108 213 34479ft 546kts
12-Nov-18 18:17 36.263427 -114.679936 213 34478ft 546kts
12-Nov-18 18:18 36.131534 -114.770609 212 34473ft 544kts
12-Nov-18 18:19 36.001180 -114.863178 223 34486ft 540kts
12-Nov-18 18:20 35.900395 -114.994055 234 34489ft 527kts
12-Nov-18 18:21 35.803601 -115.125926 234 34495ft 524kts
12-Nov-18 18:22 35.705909 -115.258492 234 34497ft 523kts
12-Nov-18 18:23 35.608473 -115.390204 234 34497ft 523kts
12-Nov-18 18:24 35.510662 -115.521938 234 34497ft 523kts
12-Nov-18 18:25 35.413375 -115.652453 233 34496ft 523kts
12-Nov-18 18:26 35.318194 -115.779659 233 34481ft 524kts
12-Nov-18 18:27 35.219656 -115.910434 231 34462ft 525kts
12-Nov-18 18:28 35.118216 -116.038382 231 33964ft 525kts
12-Nov-18 18:29 35.016558 -116.166187 231 32978ft 527kts
12-Nov-18 18:30 34.914699 -116.293724 231 30736ft 525kts
12-Nov-18 18:31 34.819582 -116.414118 231 28465ft 528kts
12-Nov-18 18:32 34.718036 -116.543320 230 26015ft 532kts
12-Nov-18 18:33 34.609016 -116.657241 221 23551ft 522kts
12-Nov-18 18:34 34.513799 -116.750047 222 22416ft 453kts
12-Nov-18 18:35 34.427390 -116.848627 226 20124ft 413kts
12-Nov-18 18:36 34.347129 -116.941699 226 17090ft 390kts
12-Nov-18 18:37 34.271370 -117.028408 219 14369ft 366kts
12-Nov-18 18:38 34.184628 -117.092965 211 13490ft 362kts
12-Nov-18 18:39 34.096327 -117.146556 206 12945ft 355kts
12-Nov-18 18:40 34.008023 -117.198362 206 12499ft 353kts
12-Nov-18 18:41 33.920187 -117.248000 204 11196ft 343kts
12-Nov-18 18:42 33.837368 -117.292996 205 10083ft 318kts
12-Nov-18 18:43 33.760843 -117.338444 206 8944ft 300kts
12-Nov-18 18:44 33.686959 -117.382349 205 7892ft 295kts
12-Nov-18 18:45 33.614142 -117.425496 205 6842ft 290kts
12-Nov-18 18:46 33.575192 -117.498594 270 5739ft 277kts
12-Nov-18 18:47 33.573375 -117.584960 271 5188ft 249kts
12-Nov-18 18:48 33.571926 -117.663911 270 4236ft 245kts
12-Nov-18 18:49 33.570860 -117.721665 270 4029ft 240kts
12-Nov-18 18:50 33.559560 -117.797808 242 3842ft 242kts
12-Nov-18 18:51 33.539370 -117.873829 270 3145ft 237kts
12-Nov-18 18:52 33.580625 -117.922344 5 1844ft 234kts
12-Nov-18 18:53 33.634110 -117.895538 29 856ft 184kts
12-Nov-18 18:54 33.671331 -117.871512 28 81ft 129kts
12-Nov-18 18:55 33.680867 -117.863500 117 65ft 12kts
12-Nov-18 18:56 33.679714 -117.862922 209 65ft 12kts
12-Nov-18 18:57 33.675998 -117.865243 201 65ft 7kts
12-Nov-18 18:58 33.675589 -117.864710 115 65ft 0kts
12-Nov-18 18:59 33.675589 -117.864710 115 65ft 0kts

Navigation Log

Ident Type
Flight plan parsing failed, navigation log unavailable